Time;durP1;ratioP1;P1;durP2;ratioP2;P2;SDS_P1;SDS_P2;PMS_P1;PMS_P2;Temp;Humidity;BMP_temperature;BMP_pressure;BME280_temperature;BME280_humidity;BME280_pressure;Samples;Min_cycle;Max_cycle;Signal;HPM_P1;HPM_P2
2023/03/18 00:01:15;;;;;;;41.33;25.60;;;5.30;99.90;;;;;;5019136;28;20046;-74
2023/03/18 00:03:42;;;;;;;39.42;25.05;;;5.40;99.90;;;;;;5020761;28;20374;-76
2023/03/18 00:06:15;;;;;;;41.45;24.63;;;5.50;99.90;;;;;;5023937;28;20052;-74
2023/03/18 00:08:45;;;;;;;33.92;20.02;;;5.50;99.90;;;;;;5015582;28;20048;-75
2023/03/18 00:11:20;;;;;;;34.75;21.70;;;5.50;99.90;;;;;;5008047;28;20457;-74
2023/03/18 00:13:48;;;;;;;40.00;24.13;;;5.50;99.90;;;;;;5031552;28;20046;-76
2023/03/18 00:16:15;;;;;;;33.63;23.10;;;5.50;99.90;;;;;;5015998;28;20038;-75
2023/03/18 00:18:45;;;;;;;35.53;22.75;;;5.60;99.90;;;;;;5033191;28;20045;-75
2023/03/18 00:21:12;;;;;;;39.13;23.13;;;5.60;99.90;;;;;;5033243;28;20049;-75
2023/03/18 00:23:39;;;;;;;42.28;23.42;;;5.50;99.90;;;;;;5041759;28;20275;-75
2023/03/18 00:26:07;;;;;;;35.72;22.80;;;5.30;99.90;;;;;;5030862;28;20417;-75
2023/03/18 00:28:36;;;;;;;37.08;22.83;;;5.20;99.90;;;;;;5031507;28;20037;-74
2023/03/18 00:31:08;;;;;;;33.63;22.27;;;5.20;99.90;;;;;;5019386;28;20073;-74
2023/03/18 00:33:38;;;;;;;37.17;21.65;;;5.30;99.90;;;;;;5031639;28;20072;-74
2023/03/18 00:36:08;;;;;;;35.58;23.88;;;5.30;99.90;;;;;;5031865;28;20068;-73
2023/03/18 00:38:37;;;;;;;37.83;22.35;;;5.30;99.90;;;;;;5000608;28;20049;-75
2023/03/18 00:41:10;;;;;;;40.30;24.67;;;5.20;99.90;;;;;;5013395;28;20497;-74
2023/03/18 00:43:51;;;;;;;39.65;22.65;;;5.10;99.90;;;;;;5017869;28;20045;-71
2023/03/18 00:46:22;;;;;;;30.67;22.58;;;5.20;99.90;;;;;;5023973;28;20049;-74
2023/03/18 00:48:51;;;;;;;40.67;23.80;;;5.30;99.90;;;;;;5005178;28;20041;-73
2023/03/18 00:51:20;;;;;;;36.55;23.60;;;5.20;99.90;;;;;;5029564;28;20505;-74
2023/03/18 00:53:50;;;;;;;41.13;24.60;;;5.10;99.90;;;;;;5018334;28;20038;-71
2023/03/18 00:56:21;;;;;;;39.20;23.92;;;5.10;99.90;;;;;;5018684;28;20115;-74
2023/03/18 00:58:49;;;;;;;37.03;23.85;;;5.20;99.90;;;;;;5030755;28;20030;-74
2023/03/18 01:01:17;;;;;;;39.35;24.67;;;5.00;99.90;;;;;;5010927;28;20049;-74
2023/03/18 01:03:45;;;;;;;36.47;22.20;;;4.90;99.90;;;;;;5015323;28;20398;-75
2023/03/18 01:06:16;;;;;;;40.97;23.23;;;5.00;99.90;;;;;;5022898;28;20041;-74
2023/03/18 01:08:43;;;;;;;35.03;22.42;;;5.00;99.90;;;;;;5014175;28;20037;-74
2023/03/18 01:11:11;;;;;;;39.30;23.65;;;5.10;99.90;;;;;;5030513;28;20045;-74
2023/03/18 01:13:39;;;;;;;39.33;24.48;;;5.00;99.90;;;;;;5031742;28;20409;-73
2023/03/18 01:16:08;;;;;;;35.53;21.95;;;4.90;99.90;;;;;;5060352;22;20173;-73
2023/03/18 01:18:37;;;;;;;34.65;22.90;;;4.80;99.90;;;;;;5053360;28;20036;-75
2023/03/18 01:21:22;;;;;;;37.03;23.38;;;4.80;99.90;;;;;;5053784;28;20024;-72
2023/03/18 01:23:50;;;;;;;45.70;24.13;;;4.80;99.90;;;;;;5082980;28;20032;-76
2023/03/18 01:26:17;;;;;;;38.72;22.88;;;4.40;99.90;;;;;;5051210;28;21380;-73
2023/03/18 01:28:46;;;;;;;35.72;23.95;;;4.40;99.90;;;;;;5070499;28;20067;-76
2023/03/18 01:31:14;;;;;;;33.28;22.88;;;4.50;99.90;;;;;;5070330;28;20040;-76
2023/03/18 01:33:45;;;;;;;42.85;22.67;;;4.60;99.90;;;;;;5069917;28;20400;-72
2023/03/18 01:36:29;;;;;;;34.75;24.38;;;4.80;99.90;;;;;;5069370;28;20024;-77
2023/03/18 01:38:57;;;;;;;36.85;23.25;;;4.50;99.90;;;;;;5068992;28;20041;-71
2023/03/18 01:41:24;;;;;;;39.30;22.77;;;4.40;99.90;;;;;;5049718;28;20045;-72
2023/03/18 01:43:55;;;;;;;39.42;22.92;;;4.30;99.90;;;;;;5064790;28;20391;-73
2023/03/18 01:46:46;;;;;;;35.65;22.75;;;4.40;99.90;;;;;;5069678;28;20033;-74
2023/03/18 01:49:25;;;;;;;34.10;22.48;;;4.50;99.90;;;;;;5070893;22;20053;-74
2023/03/18 01:52:07;;;;;;;33.72;21.05;;;4.50;99.90;;;;;;5025020;28;20061;-73
2023/03/18 01:54:38;;;;;;;32.17;20.35;;;4.50;99.90;;;;;;5047926;28;20040;-73
2023/03/18 01:57:06;;;;;;;31.80;19.98;;;4.50;99.90;;;;;;5028487;28;20413;-73
2023/03/18 01:59:37;;;;;;;29.17;20.77;;;4.50;99.90;;;;;;5066580;28;20051;-74
2023/03/18 02:02:08;;;;;;;30.83;19.23;;;4.20;99.90;;;;;;5066516;28;20043;-74
2023/03/18 02:04:43;;;;;;;33.67;18.95;;;4.10;99.90;;;;;;5069300;28;20045;-73
2023/03/18 02:07:21;;;;;;;29.05;18.75;;;4.20;99.90;;;;;;5046947;28;20045;-74
2023/03/18 02:09:50;;;;;;;30.77;19.83;;;4.10;99.90;;;;;;5054292;23;20045;-73
2023/03/18 02:12:23;;;;;;;28.27;18.40;;;4.20;99.90;;;;;;5028283;28;20052;-74
2023/03/18 02:14:52;;;;;;;29.67;19.25;;;4.20;99.90;;;;;;5044711;28;20041;-72
2023/03/18 02:17:24;;;;;;;28.73;19.00;;;4.30;99.90;;;;;;5056004;28;20437;-72
2023/03/18 02:20:51;;;;;;;27.05;18.73;;;4.50;99.90;;;;;;5042654;28;20472;-74
2023/03/18 02:23:30;;;;;;;25.58;17.73;;;4.40;99.90;;;;;;5047061;28;20044;-74
2023/03/18 02:26:28;;;;;;;27.17;18.38;;;4.40;99.90;;;;;;5033601;28;20131;-75
2023/03/18 02:29:01;;;;;;;25.35;17.25;;;4.30;99.90;;;;;;5050212;28;20139;-74
2023/03/18 02:31:29;;;;;;;25.15;14.27;;;4.40;99.90;;;;;;5050603;28;20045;-74
2023/03/18 02:33:58;;;;;;;18.77;12.82;;;4.10;99.90;;;;;;5045508;28;20039;-74
2023/03/18 02:36:27;;;;;;;19.35;13.07;;;4.00;99.90;;;;;;5041301;28;20052;-72
2023/03/18 02:38:56;;;;;;;16.90;11.43;;;4.10;99.90;;;;;;5059585;28;20460;-71
2023/03/18 02:41:27;;;;;;;18.27;12.43;;;3.70;99.90;;;;;;5040273;28;20386;-76
2023/03/18 02:43:54;;;;;;;18.65;13.82;;;3.70;99.90;;;;;;5055811;28;20404;-71
2023/03/18 02:46:31;;;;;;;22.00;14.70;;;3.90;99.90;;;;;;5032754;28;20148;-73
2023/03/18 02:49:05;;;;;;;21.55;15.30;;;3.90;99.90;;;;;;5060396;28;20036;-72
2023/03/18 02:51:35;;;;;;;23.38;14.48;;;3.70;99.90;;;;;;5071220;28;20480;-77
2023/03/18 02:54:07;;;;;;;18.02;12.02;;;3.90;99.90;;;;;;5037114;28;20037;-73
2023/03/18 02:56:35;;;;;;;16.58;11.38;;;3.80;99.90;;;;;;5037221;28;20049;-73
2023/03/18 02:59:03;;;;;;;21.13;13.73;;;3.80;99.90;;;;;;5055499;28;20036;-74
2023/03/18 03:01:32;;;;;;;22.55;13.75;;;3.90;99.90;;;;;;5004468;28;20164;-72
2023/03/18 03:04:01;;;;;;;23.25;13.43;;;4.00;99.90;;;;;;5056535;28;20045;-72
2023/03/18 03:06:28;;;;;;;19.45;13.77;;;4.00;99.90;;;;;;5053829;28;20060;-76
2023/03/18 03:09:15;;;;;;;18.88;14.02;;;4.00;99.90;;;;;;5064356;28;20598;-73
2023/03/18 03:11:45;;;;;;;17.52;13.38;;;4.10;99.90;;;;;;5036822;28;20040;-75
2023/03/18 03:14:13;;;;;;;22.98;14.02;;;4.00;99.90;;;;;;5045350;28;20052;-75
2023/03/18 03:16:42;;;;;;;21.25;13.40;;;4.00;99.90;;;;;;5046563;28;21130;-74
2023/03/18 03:19:10;;;;;;;22.30;13.38;;;4.00;99.90;;;;;;5023862;28;20053;-75
2023/03/18 03:21:38;;;;;;;21.98;14.13;;;4.00;99.90;;;;;;5023288;28;20037;-75
2023/03/18 03:24:06;;;;;;;21.40;14.13;;;4.00;99.90;;;;;;5040083;28;20411;-73
2023/03/18 03:26:34;;;;;;;22.55;14.02;;;3.80;99.90;;;;;;5042481;28;20183;-75
2023/03/18 03:29:03;;;;;;;22.10;14.57;;;3.70;99.90;;;;;;5038103;28;20045;-75
2023/03/18 03:31:34;;;;;;;22.20;13.80;;;3.50;99.90;;;;;;5060126;28;20368;-74
2023/03/18 03:34:18;;;;;;;22.60;14.65;;;3.10;99.90;;;;;;5057391;28;20021;-72
2023/03/18 03:36:45;;;;;;;27.42;14.75;;;3.20;99.90;;;;;;5041977;28;20075;-74
2023/03/18 03:39:13;;;;;;;24.25;14.45;;;3.20;99.90;;;;;;5051078;28;20052;-74
2023/03/18 03:41:41;;;;;;;22.50;14.15;;;3.30;99.90;;;;;;5042400;28;20051;-74
2023/03/18 03:44:08;;;;;;;20.20;13.68;;;3.30;99.90;;;;;;5050533;28;20041;-74
2023/03/18 03:46:36;;;;;;;19.02;13.55;;;3.20;99.90;;;;;;5042411;28;20147;-74
2023/03/18 03:49:03;;;;;;;23.58;13.90;;;3.10;99.90;;;;;;5053367;28;20392;-74
2023/03/18 03:51:31;;;;;;;22.15;14.48;;;3.30;99.90;;;;;;5052028;28;20070;-74
2023/03/18 03:53:58;;;;;;;22.30;13.85;;;3.20;99.90;;;;;;5041694;28;20097;-73
2023/03/18 03:56:26;;;;;;;21.27;13.15;;;3.30;99.90;;;;;;5053297;28;20044;-72
2023/03/18 03:58:53;;;;;;;20.00;13.25;;;3.20;99.90;;;;;;5054427;28;20040;-75
2023/03/18 04:01:22;;;;;;;18.27;11.98;;;3.30;99.90;;;;;;5057269;28;20385;-75
2023/03/18 04:03:52;;;;;;;21.40;13.13;;;3.30;99.90;;;;;;5059324;28;20036;-72
2023/03/18 04:06:20;;;;;;;19.35;12.52;;;3.30;99.90;;;;;;5043081;28;20087;-73
2023/03/18 04:08:47;;;;;;;19.42;12.57;;;3.20;99.90;;;;;;5040443;28;20041;-73
2023/03/18 04:11:14;;;;;;;18.45;12.35;;;3.20;99.90;;;;;;5065401;28;20377;-75
2023/03/18 04:13:42;;;;;;;16.90;11.68;;;3.20;99.90;;;;;;5036878;28;20408;-73
2023/03/18 04:16:10;;;;;;;17.23;11.60;;;3.30;99.90;;;;;;5040863;28;20057;-75
2023/03/18 04:18:38;;;;;;;15.18;11.48;;;3.40;99.90;;;;;;5042379;28;20099;-71
2023/03/18 04:21:24;;;;;;;19.90;12.43;;;3.40;99.90;;;;;;5058300;28;20063;-73
2023/03/18 04:24:10;;;;;;;16.98;12.20;;;3.30;99.90;;;;;;5053168;28;20067;-74
2023/03/18 04:26:37;;;;;;;18.23;11.77;;;3.10;99.90;;;;;;5022726;28;20382;-73
2023/03/18 04:29:05;;;;;;;16.77;11.60;;;3.10;99.90;;;;;;5039175;28;20048;-74
2023/03/18 04:31:33;;;;;;;17.30;11.13;;;3.20;99.90;;;;;;5044720;28;20437;-74
2023/03/18 04:34:00;;;;;;;21.20;11.70;;;3.30;99.90;;;;;;5034939;28;20029;-73
2023/03/18 04:36:28;;;;;;;13.35;10.65;;;3.30;99.90;;;;;;5024506;28;20152;-73
2023/03/18 04:38:55;;;;;;;14.80;11.10;;;3.20;99.90;;;;;;5058602;28;20396;-72
2023/03/18 04:41:23;;;;;;;16.73;11.50;;;3.20;99.90;;;;;;5046217;28;20067;-73
2023/03/18 04:43:51;;;;;;;17.73;12.00;;;3.10;99.90;;;;;;5062828;28;20542;-74
2023/03/18 04:46:19;;;;;;;16.67;11.32;;;3.20;99.90;;;;;;5047679;28;20047;-73
2023/03/18 04:48:47;;;;;;;17.65;11.15;;;3.20;99.90;;;;;;5060553;28;20108;-74
2023/03/18 04:51:14;;;;;;;14.60;10.60;;;3.20;99.90;;;;;;5051829;28;20045;-72
2023/03/18 04:53:42;;;;;;;16.27;12.13;;;3.20;99.90;;;;;;5052356;28;20041;-72
2023/03/18 04:56:09;;;;;;;14.85;10.77;;;3.30;99.90;;;;;;5035098;28;20132;-75
2023/03/18 04:58:39;;;;;;;16.42;11.40;;;3.20;99.90;;;;;;5035286;28;20045;-73
2023/03/18 05:01:06;;;;;;;16.00;10.85;;;3.20;99.90;;;;;;5037090;28;20048;-74
2023/03/18 05:03:34;;;;;;;14.77;10.95;;;3.20;99.90;;;;;;5053147;28;20465;-74
2023/03/18 05:06:02;;;;;;;17.27;11.60;;;3.10;99.90;;;;;;5036058;28;20045;-72
2023/03/18 05:08:29;;;;;;;16.55;11.32;;;3.20;99.90;;;;;;5032033;28;20037;-72
2023/03/18 05:10:57;;;;;;;17.85;11.23;;;3.30;99.90;;;;;;5036161;28;20044;-75
2023/03/18 05:13:24;;;;;;;20.90;11.25;;;3.10;99.90;;;;;;5035840;28;20095;-73
2023/03/18 05:15:51;;;;;;;18.83;11.77;;;3.10;99.90;;;;;;5051562;28;20099;-74
2023/03/18 05:18:19;;;;;;;16.95;11.13;;;3.10;99.90;;;;;;5051749;28;20373;-75
2023/03/18 05:20:47;;;;;;;16.05;11.20;;;3.30;99.90;;;;;;5034602;28;20045;-75
2023/03/18 05:23:14;;;;;;;17.42;12.43;;;3.30;99.90;;;;;;5047983;28;20097;-72
2023/03/18 05:25:59;;;;;;;23.70;11.98;;;3.10;99.90;;;;;;5061585;28;20039;-73
2023/03/18 05:28:26;;;;;;;17.83;11.52;;;3.30;99.90;;;;;;5035943;28;20041;-75
2023/03/18 05:30:54;;;;;;;17.88;10.68;;;3.40;99.90;;;;;;5044572;28;20427;-75
2023/03/18 05:33:21;;;;;;;13.95;11.15;;;3.50;99.90;;;;;;5056519;28;20037;-73
2023/03/18 05:35:49;;;;;;;20.13;11.02;;;3.50;99.90;;;;;;5070127;28;20040;-72
2023/03/18 05:38:17;;;;;;;16.23;11.13;;;3.30;99.90;;;;;;5061266;28;20045;-73
2023/03/18 05:40:44;;;;;;;15.63;11.23;;;3.30;99.90;;;;;;5068867;28;20044;-72
2023/03/18 05:43:11;;;;;;;15.07;10.38;;;3.50;99.90;;;;;;5060369;28;20041;-72
2023/03/18 05:45:39;;;;;;;21.63;10.70;;;3.40;99.90;;;;;;5051504;28;20089;-74
2023/03/18 05:48:07;;;;;;;16.65;9.80;;;3.50;99.90;;;;;;5041933;28;20045;-75
2023/03/18 05:50:40;;;;;;;13.50;9.90;;;3.50;99.90;;;;;;5051271;28;20045;-75
2023/03/18 05:53:10;;;;;;;12.27;9.18;;;3.50;99.90;;;;;;5046444;28;20051;-72
2023/03/18 05:55:39;;;;;;;15.68;9.98;;;3.60;99.90;;;;;;5051505;28;20064;-74
2023/03/18 05:58:06;;;;;;;15.57;10.40;;;3.50;99.90;;;;;;5051063;28;20124;-73
2023/03/18 06:00:34;;;;;;;13.57;9.35;;;3.60;99.90;;;;;;5051910;28;20378;-75
2023/03/18 06:03:01;;;;;;;15.32;10.30;;;3.50;99.90;;;;;;5044530;28;20040;-73
2023/03/18 06:05:29;;;;;;;19.98;9.88;;;3.50;99.90;;;;;;5053004;28;20067;-75
2023/03/18 06:08:14;;;;;;;15.57;11.35;;;3.60;99.90;;;;;;5045884;28;20032;-73
2023/03/18 06:10:41;;;;;;;18.85;10.85;;;3.50;99.90;;;;;;5038566;28;20132;-73
2023/03/18 06:13:10;;;;;;;17.17;10.77;;;3.40;99.90;;;;;;5059251;28;20037;-71
2023/03/18 06:15:40;;;;;;;19.27;12.13;;;3.60;99.90;;;;;;5035423;28;20048;-72
2023/03/18 06:18:08;;;;;;;16.63;11.30;;;3.60;99.90;;;;;;5018354;28;20049;-69
2023/03/18 06:20:35;;;;;;;15.68;10.52;;;3.70;99.90;;;;;;5051753;28;20124;-71
2023/03/18 06:23:02;;;;;;;15.57;10.55;;;3.90;99.90;;;;;;5020574;28;20033;-74
2023/03/18 06:25:48;;;;;;;13.55;10.05;;;4.00;99.90;;;;;;5049828;28;20032;-71
2023/03/18 06:28:34;;;;;;;14.68;9.68;;;4.10;99.90;;;;;;5035992;28;20109;-72
2023/03/18 06:31:21;;;;;;;12.93;9.40;;;4.10;99.90;;;;;;5062091;28;20519;-74
2023/03/18 06:33:48;;;;;;;17.77;10.02;;;4.20;99.90;;;;;;5024330;28;20109;-75
2023/03/18 06:36:26;;;;;;;15.27;10.65;;;4.20;99.90;;;;;;5041154;28;20048;-76
2023/03/18 06:38:54;;;;;;;14.73;10.38;;;4.30;99.90;;;;;;5063962;28;20051;-76
2023/03/18 06:41:22;;;;;;;14.32;10.48;;;4.30;99.90;;;;;;5038394;28;20075;-75
2023/03/18 06:43:50;;;;;;;12.95;9.90;;;4.20;99.90;;;;;;5060809;28;20044;-72
2023/03/18 06:46:18;;;;;;;15.43;10.63;;;4.30;99.90;;;;;;5045886;28;20064;-73
2023/03/18 06:48:45;;;;;;;13.75;10.30;;;4.20;99.90;;;;;;5060401;28;20039;-72
2023/03/18 06:51:13;;;;;;;17.00;11.45;;;4.30;99.90;;;;;;5035724;28;20070;-72
2023/03/18 06:53:43;;;;;;;19.08;10.93;;;4.30;99.90;;;;;;5033139;28;20408;-74
2023/03/18 06:56:14;;;;;;;19.63;11.48;;;4.40;99.90;;;;;;5049053;28;20433;-74
2023/03/18 06:58:42;;;;;;;19.25;11.25;;;4.70;99.90;;;;;;5044571;28;20083;-75
2023/03/18 07:01:11;;;;;;;20.73;11.25;;;4.70;99.90;;;;;;5030359;28;20048;-74
2023/03/18 07:03:40;;;;;;;15.35;10.70;;;4.90;99.90;;;;;;5044559;28;20045;-75
2023/03/18 07:06:09;;;;;;;15.38;10.93;;;4.90;99.90;;;;;;5018655;28;20041;-73
2023/03/18 07:08:37;;;;;;;16.95;11.68;;;4.90;99.90;;;;;;5054536;28;20132;-75
2023/03/18 07:11:06;;;;;;;17.08;11.70;;;4.70;99.90;;;;;;5049516;28;20044;-74
2023/03/18 07:13:52;;;;;;;16.67;11.50;;;4.60;99.90;;;;;;5063496;28;20039;-72
2023/03/18 07:16:22;;;;;;;17.83;11.27;;;4.80;99.90;;;;;;5019117;28;20063;-73
2023/03/18 07:18:49;;;;;;;16.63;11.52;;;4.70;99.90;;;;;;5032390;28;20136;-70
2023/03/18 07:21:16;;;;;;;14.82;10.90;;;4.80;99.90;;;;;;5050390;28;20037;-73
2023/03/18 07:23:43;;;;;;;16.88;11.05;;;5.00;99.90;;;;;;5036875;28;20045;-72
2023/03/18 07:26:11;;;;;;;14.30;10.38;;;5.10;99.90;;;;;;5062420;28;20040;-73
2023/03/18 07:28:43;;;;;;;19.25;11.73;;;5.20;99.90;;;;;;5041671;28;20060;-75
2023/03/18 07:31:13;;;;;;;17.83;11.93;;;5.30;99.90;;;;;;5029904;28;20043;-77
2023/03/18 07:33:41;;;;;;;18.33;11.82;;;5.20;99.90;;;;;;5036596;28;20075;-73
2023/03/18 07:36:08;;;;;;;16.13;12.35;;;5.30;99.90;;;;;;5030985;28;20040;-74
2023/03/18 07:38:38;;;;;;;20.45;13.43;;;5.30;99.90;;;;;;5068452;28;20048;-74
2023/03/18 07:41:06;;;;;;;19.02;12.85;;;5.50;99.90;;;;;;5041250;23;20041;-74
2023/03/18 07:43:34;;;;;;;23.00;14.50;;;5.60;99.90;;;;;;5046131;28;20465;-71
2023/03/18 07:46:02;;;;;;;22.25;14.35;;;5.70;99.90;;;;;;5070285;28;20052;-74
2023/03/18 07:48:30;;;;;;;22.85;13.93;;;5.70;99.90;;;;;;5040077;28;20128;-74
2023/03/18 07:50:59;;;;;;;25.98;12.55;;;5.90;99.90;;;;;;5068664;28;20044;-72
2023/03/18 07:53:27;;;;;;;13.50;10.17;;;5.90;99.90;;;;;;5070374;28;20048;-74
2023/03/18 07:55:56;;;;;;;15.45;10.20;;;5.90;99.90;;;;;;5052168;28;20404;-74
2023/03/18 07:58:25;;;;;;;14.80;9.20;;;5.80;99.90;;;;;;5081526;28;20057;-73
2023/03/18 08:00:53;;;;;;;16.00;9.98;;;5.90;99.90;;;;;;5037395;28;20064;-75
2023/03/18 08:03:20;;;;;;;17.73;10.55;;;6.00;99.90;;;;;;5068928;28;20428;-73
2023/03/18 08:05:47;;;;;;;14.40;9.48;;;6.50;99.90;;;;;;5052318;28;20037;-73
2023/03/18 08:08:15;;;;;;;15.65;10.30;;;6.60;99.90;;;;;;5037079;28;20059;-71
2023/03/18 08:10:42;;;;;;;14.15;10.07;;;6.60;99.90;;;;;;5033546;28;20370;-73
2023/03/18 08:13:10;;;;;;;14.35;9.68;;;6.60;99.90;;;;;;5046789;28;20492;-72
2023/03/18 08:15:37;;;;;;;14.55;9.68;;;6.60;99.90;;;;;;5037951;28;20033;-72
2023/03/18 08:18:05;;;;;;;13.75;9.75;;;6.90;99.90;;;;;;5054402;28;20497;-76
2023/03/18 08:20:35;;;;;;;11.32;8.80;;;7.10;99.90;;;;;;5055472;28;20375;-75
2023/03/18 08:23:07;;;;;;;12.23;9.35;;;7.30;99.90;;;;;;5066684;28;20449;-73
2023/03/18 08:25:35;;;;;;;14.95;10.15;;;7.30;99.90;;;;;;5030847;28;20060;-74
2023/03/18 08:28:02;;;;;;;11.68;8.35;;;7.40;99.90;;;;;;5054999;28;20063;-76
2023/03/18 08:30:29;;;;;;;12.25;8.18;;;7.50;99.90;;;;;;5056129;28;20043;-75
2023/03/18 08:32:56;;;;;;;14.05;9.13;;;7.70;99.90;;;;;;5056117;28;20045;-72
2023/03/18 08:35:24;;;;;;;11.07;8.30;;;7.80;99.90;;;;;;5070489;28;20453;-73
2023/03/18 08:37:52;;;;;;;12.98;9.35;;;7.80;99.90;;;;;;5048167;28;20048;-76
2023/03/18 08:40:20;;;;;;;12.40;9.23;;;7.90;99.90;;;;;;5053066;28;20048;-75
2023/03/18 08:42:51;;;;;;;12.38;8.43;;;8.20;99.90;;;;;;5035795;28;20495;-74
2023/03/18 08:45:19;;;;;;;11.38;8.07;;;8.10;99.90;;;;;;5052561;28;20051;-72
2023/03/18 08:47:46;;;;;;;11.07;8.30;;;8.20;99.90;;;;;;5043490;28;20431;-74
2023/03/18 08:50:14;;;;;;;12.20;8.73;;;8.50;99.90;;;;;;5065990;28;20047;-73
2023/03/18 08:52:41;;;;;;;11.30;7.75;;;8.70;99.80;;;;;;5042336;28;20056;-75
2023/03/18 08:55:08;;;;;;;18.92;14.20;;;8.70;99.60;;;;;;5045022;28;20117;-74
2023/03/18 08:57:38;;;;;;;26.80;19.83;;;8.60;99.00;;;;;;5049626;28;20059;-76
2023/03/18 09:00:08;;;;;;;24.13;17.17;;;8.80;99.20;;;;;;5034878;28;20048;-75
2023/03/18 09:02:36;;;;;;;16.13;12.23;;;9.20;99.10;;;;;;5035190;28;20069;-76
2023/03/18 09:05:04;;;;;;;11.10;9.25;;;9.50;98.20;;;;;;5045936;28;20070;-72
2023/03/18 09:07:31;;;;;;;12.32;8.23;;;9.40;97.80;;;;;;5034136;28;20059;-74
2023/03/18 09:09:59;;;;;;;12.35;8.45;;;9.60;97.50;;;;;;5041188;23;20061;-72
2023/03/18 09:12:27;;;;;;;10.23;7.97;;;9.90;97.30;;;;;;5050725;28;20481;-74
2023/03/18 09:14:55;;;;;;;10.75;8.65;;;10.10;97.40;;;;;;5029907;28;20569;-73
2023/03/18 09:17:23;;;;;;;11.63;7.22;;;10.10;96.70;;;;;;5030385;28;20171;-74
2023/03/18 09:20:17;;;;;;;11.82;7.53;;;10.30;96.10;;;;;;5025480;28;20045;-74
2023/03/18 09:22:46;;;;;;;11.50;7.47;;;10.30;94.10;;;;;;5049250;28;20064;-72
2023/03/18 09:25:15;;;;;;;9.27;6.90;;;10.20;94.30;;;;;;5026401;28;20037;-73
2023/03/18 09:27:42;;;;;;;8.48;6.45;;;10.20;92.60;;;;;;5062830;28;20044;-73
2023/03/18 09:30:10;;;;;;;13.07;8.75;;;10.20;92.50;;;;;;5060296;23;20041;-77
2023/03/18 09:32:38;;;;;;;20.35;14.25;;;10.70;92.50;;;;;;5023957;28;20055;-76
2023/03/18 09:35:08;;;;;;;28.20;18.83;;;10.90;92.00;;;;;;5057090;28;20041;-73
2023/03/18 09:37:39;;;;;;;34.17;23.35;;;11.20;92.00;;;;;;5033378;28;20049;-73
2023/03/18 09:40:32;;;;;;;12.50;8.52;;;11.40;91.60;;;;;;5034482;28;20040;-76
2023/03/18 09:43:43;;;;;;;10.02;6.82;;;11.70;90.70;;;;;;5030795;28;20037;-77
2023/03/18 09:46:23;;;;;;;;;;;12.10;90.90;;;;;;5053765;28;20172;-76
2023/03/18 09:48:59;;;;;;;8.93;7.00;;;12.00;88.70;;;;;;5063336;28;19931;-75
2023/03/18 09:51:50;;;;;;;10.85;7.13;;;11.90;87.00;;;;;;5064570;28;20385;-79
2023/03/18 09:54:30;;;;;;;8.55;6.40;;;11.80;86.50;;;;;;5052824;28;20053;-72
2023/03/18 09:56:58;;;;;;;12.10;6.93;;;11.90;89.70;;;;;;5050205;28;20480;-75
2023/03/18 09:59:59;;;;;;;15.88;7.60;;;12.40;88.30;;;;;;5059423;28;20095;-72
2023/03/18 10:02:40;;;;;;;12.85;7.47;;;12.20;86.50;;;;;;5035846;28;20408;-76
2023/03/18 10:05:29;;;;;;;12.15;7.53;;;12.50;83.70;;;;;;5034274;28;20404;-72
2023/03/18 10:08:12;;;;;;;17.00;7.82;;;12.40;80.00;;;;;;5053246;28;20037;-75
2023/03/18 10:10:45;;;;;;;19.95;8.38;;;12.60;84.30;;;;;;5064303;28;20041;-76
2023/03/18 10:13:16;;;;;;;16.33;8.27;;;12.90;83.40;;;;;;5050162;28;20114;-73
2023/03/18 10:15:47;;;;;;;51.08;28.40;;;13.00;82.00;;;;;;5059253;28;20032;-74
2023/03/18 10:18:33;;;;;;;68.95;37.90;;;12.90;79.30;;;;;;5054051;28;20455;-78
2023/03/18 10:21:15;;;;;;;21.63;11.63;;;13.30;82.70;;;;;;5063099;28;20155;-72
2023/03/18 10:23:48;;;;;;;12.48;8.15;;;13.20;81.60;;;;;;5056656;28;20063;-78
2023/03/18 10:26:34;;;;;;;12.68;7.68;;;13.20;78.40;;;;;;5053639;28;20397;-80
2023/03/18 10:29:23;;;;;;;15.88;7.95;;;13.30;76.80;;;;;;5043510;28;20053;-72
2023/03/18 10:32:09;;;;;;;11.63;7.22;;;13.40;77.20;;;;;;5033038;28;20055;-79
2023/03/18 10:34:56;;;;;;;10.32;7.10;;;13.10;75.10;;;;;;5021403;28;20107;-72
2023/03/18 10:37:55;;;;;;;10.98;7.82;;;12.90;74.00;;;;;;5041828;28;20119;-79
2023/03/18 10:40:27;;;;;;;9.55;7.13;;;13.40;77.00;;;;;;5007958;28;20143;-76
2023/03/18 10:42:55;;;;;;;11.57;7.07;;;13.90;74.90;;;;;;5046108;28;20040;-74
2023/03/18 10:45:32;;;;;;;10.18;6.55;;;13.70;72.50;;;;;;5025799;28;20123;-74
2023/03/18 10:48:23;;;;;;;10.48;6.28;;;13.70;71.10;;;;;;5037422;28;20033;-78
2023/03/18 10:51:07;;;;;;;7.72;5.75;;;14.10;74.00;;;;;;5020187;28;20055;-75
2023/03/18 10:54:00;;;;;;;11.50;7.05;;;14.10;67.50;;;;;;5035627;28;20089;-77
2023/03/18 10:56:28;;;;;;;9.30;6.65;;;14.20;69.50;;;;;;5014388;28;20037;-73
2023/03/18 10:58:56;;;;;;;10.90;7.03;;;14.00;70.70;;;;;;5047522;28;20037;-71
2023/03/18 11:01:27;;;;;;;8.18;5.85;;;14.10;70.90;;;;;;5035713;28;20041;-72
2023/03/18 11:04:02;;;;;;;9.63;5.82;;;13.60;67.60;;;;;;5020486;28;20492;-77
2023/03/18 11:07:02;;;;;;;7.95;5.55;;;14.10;68.90;;;;;;5035283;28;20482;-79
2023/03/18 11:09:32;;;;;;;9.02;5.00;;;13.80;67.10;;;;;;5022522;28;20053;-72
2023/03/18 11:12:04;;;;;;;;;;;14.30;65.80;;;;;;5034817;28;20049;-73
2023/03/18 11:14:36;;;;;;;8.32;5.22;;;15.20;65.60;;;;;;5036531;28;19956;-75
2023/03/18 11:17:22;;;;;;;7.18;5.22;;;17.60;57.90;;;;;;5043269;28;20067;-77
2023/03/18 11:20:05;;;;;;;7.68;5.38;;;17.30;56.60;;;;;;5052349;28;20037;-73
2023/03/18 11:22:35;;;;;;;9.15;5.68;;;16.50;60.40;;;;;;5037022;28;20045;-77
2023/03/18 11:25:16;;;;;;;8.40;5.22;;;15.80;61.00;;;;;;5033961;28;20037;-78
2023/03/18 11:27:47;;;;;;;8.95;5.85;;;15.30;62.70;;;;;;5034226;28;20060;-77
2023/03/18 11:30:24;;;;;;;7.82;5.47;;;15.00;63.50;;;;;;5046009;28;20045;-72
2023/03/18 11:33:09;;;;;;;12.07;5.07;;;15.50;63.30;;;;;;5056057;28;20041;-77
2023/03/18 11:35:43;;;;;;;7.65;5.00;;;15.50;62.50;;;;;;5044679;28;20094;-73
2023/03/18 11:38:18;;;;;;;7.68;5.00;;;15.30;61.10;;;;;;5046158;28;20058;-72
2023/03/18 11:40:46;;;;;;;8.98;4.90;;;15.80;62.00;;;;;;5062093;28;20032;-73
2023/03/18 11:43:19;;;;;;;8.15;4.90;;;15.60;61.30;;;;;;5074805;28;20075;-75
2023/03/18 11:45:50;;;;;;;12.75;5.60;;;15.90;61.50;;;;;;5057295;28;20029;-78
2023/03/18 11:48:30;;;;;;;7.78;4.80;;;15.70;60.90;;;;;;5053785;28;20437;-79
2023/03/18 11:51:27;;;;;;;7.53;4.72;;;15.80;60.70;;;;;;5055305;28;20112;-79
2023/03/18 11:54:01;;;;;;;8.13;5.35;;;15.70;60.20;;;;;;5071446;28;20068;-73
2023/03/18 11:56:37;;;;;;;6.82;4.82;;;16.30;60.30;;;;;;5030624;28;20136;-73
2023/03/18 11:59:16;;;;;;;7.18;4.60;;;16.70;59.70;;;;;;5069008;28;20037;-74
2023/03/18 12:01:52;;;;;;;6.57;4.50;;;17.00;58.70;;;;;;5054103;28;20362;-73
2023/03/18 12:04:36;;;;;;;7.70;4.97;;;16.60;57.60;;;;;;5062975;28;20124;-72
2023/03/18 12:08:01;;;;;;;7.88;4.80;;;16.60;58.10;;;;;;5056579;28;20029;-73
2023/03/18 12:11:12;;;;;;;7.57;4.22;;;16.60;57.90;;;;;;4985107;28;20042;-79
2023/03/18 12:13:39;;;;;;;5.80;3.95;;;17.20;58.40;;;;;;5066996;28;20433;-73
2023/03/18 12:16:38;;;;;;;6.63;4.38;;;17.40;56.80;;;;;;5036861;28;20037;-74
2023/03/18 12:19:36;;;;;;;7.07;4.20;;;16.80;57.20;;;;;;5043233;28;20124;-76
2023/03/18 12:22:06;;;;;;;7.50;4.22;;;19.70;53.90;;;;;;5053834;28;20048;-74
2023/03/18 12:24:53;;;;;;;7.90;4.17;;;20.40;50.70;;;;;;5051458;28;20049;-74
2023/03/18 12:27:41;;;;;;;12.40;8.38;;;22.30;49.30;;;;;;5054246;28;20048;-74
2023/03/18 12:30:37;;;;;;;11.18;6.95;;;22.30;48.10;;;;;;5034811;28;20067;-72
2023/03/18 12:33:13;;;;;;;15.40;12.95;;;22.30;46.80;;;;;;5056192;28;20044;-72
2023/03/18 12:35:45;;;;;;;7.70;4.88;;;22.70;45.60;;;;;;5062012;28;20431;-71
2023/03/18 12:38:53;;;;;;;7.30;4.07;;;23.80;44.40;;;;;;5063497;28;20048;-74
2023/03/18 12:41:26;;;;;;;5.90;3.78;;;23.60;44.40;;;;;;5064894;28;20051;-77
2023/03/18 12:43:54;;;;;;;41.53;34.22;;;23.70;44.00;;;;;;5049460;28;20380;-74
2023/03/18 12:46:57;;;;;;;15.07;13.25;;;24.10;43.40;;;;;;5051534;28;20044;-76
2023/03/18 12:49:34;;;;;;;5.93;3.55;;;24.20;42.20;;;;;;5053955;28;20037;-78
2023/03/18 12:52:06;;;;;;;5.95;4.00;;;23.50;43.80;;;;;;5049946;28;20041;-71
2023/03/18 12:55:17;;;;;;;5.18;3.55;;;23.00;43.40;;;;;;5042703;28;20381;-72
2023/03/18 12:57:55;;;;;;;6.53;3.88;;;24.00;42.70;;;;;;5033204;28;20090;-70
2023/03/18 13:01:16;;;;;;;6.10;3.60;;;23.60;42.00;;;;;;5053850;28;20060;-74
2023/03/18 13:03:52;;;;;;;5.95;3.20;;;25.00;40.70;;;;;;5058397;28;20108;-71
2023/03/18 13:06:50;;;;;;;6.80;3.10;;;24.30;41.10;;;;;;5053128;28;20051;-75
2023/03/18 13:09:44;;;;;;;5.38;2.92;;;24.30;40.80;;;;;;5034883;28;20491;-74
2023/03/18 13:12:18;;;;;;;4.75;2.78;;;24.20;41.00;;;;;;5031940;28;20056;-79